Aérodrome :
LOGIN :

S'inscrire | Disclaimer

   EN    FR    IT 

 










Légende :    VFR   VFR Marginal   IFR   IFR Intensif   IFR Très Intensif
Visi : 
Plafond : 
>= 8 km
>= 3000ft
5 à 8 km
1000 à 3000 ft
1500m à 5 km
500 à 1000 ft
800 à 1500m
200 à 500 ft
< 800m
< 200 ft
Symboles :   Orages  Brouillard  Fortes neiges  Fortes précipitations  Vent > 20 kt
SIGMETs :   Divers  Orages  Givrage  Turbulence  Onde Orograph.  Cendres Volcan.






- Altitude de l'aérodrome : 203 ft
- Code IATA : XMJ


LFBM - Mont-De-Marsan

DERNIER METAR :
  • 050800Z AUTO 24008KT 220V280 9999 FEW018 BKN086 21/16 Q1015

METARs EXPIRÉS :
  • 050730Z AUTO 22005KT 190V260 CAVOK 21/17 Q1015 NOSIG
  • 050700Z AUTO 22004KT 180V250 CAVOK 19/16 Q1015 NOSIG
  • 050630Z AUTO 23003KT 200V260 CAVOK 19/16 Q1015 NOSIG
  • 050600Z AUTO 22003KT 190V250 9999 FEW047 OVC110 18/16 Q1015 TEMPO 1500 MIFG BKN007 BKN030
  • 050530Z AUTO 23004KT 190V260 CAVOK 18/16 Q1015 TEMPO 1500 MIFG BKN007 BKN030

TAF TAF LFBM
Valide du 05 à 03h jusqu'au 06 à 03h UTC


050200Z 0503/0603 VRB03KT 9999 BKN007 BKN030
PROB40
TEMPO 0503/0507 1500 MIFG
BECMG 0507/0509 SCT010
BECMG 0509/0511 SCT025



MET'MAP, la Météo Aéronautique d'un coup d'oeil ! - Copyright ORBIFLY Décembre 2007 - Disclaimer

ORBIFLY MET'MAP TEAM :

Programmation & Développement : Alexandra Zaïnal
Sur une idée originale de : Baudouin d'Aumeries
Assistance à la programmation : Marc-Olivier Méhu
Soutien technique & logistique : Manuel Goepfert

Contact : metmap@orbifly.com




SOURCES & CREDITS :

   NOAA